sensor_id;sensor_type;location;lat;lon;timestamp;P1;durP1;ratioP1;P2;durP2;ratioP2
58208;SDS011;44006;52.028;4.696;2023-06-22T00:02:18;22.15;;;17.25;;
58208;SDS011;44006;52.028;4.696;2023-06-22T00:04:43;22.75;;;17.00;;
58208;SDS011;44006;52.028;4.696;2023-06-22T00:07:09;23.55;;;17.85;;
58208;SDS011;44006;52.028;4.696;2023-06-22T00:09:34;25.50;;;17.58;;
58208;SDS011;44006;52.028;4.696;2023-06-22T00:11:59;22.87;;;17.50;;
58208;SDS011;44006;52.028;4.696;2023-06-22T00:14:24;22.25;;;17.00;;
58208;SDS011;44006;52.028;4.696;2023-06-22T00:16:50;23.10;;;17.83;;
58208;SDS011;44006;52.028;4.696;2023-06-22T00:19:19;21.75;;;16.52;;
58208;SDS011;44006;52.028;4.696;2023-06-22T00:21:46;22.40;;;16.63;;
58208;SDS011;44006;52.028;4.696;2023-06-22T00:24:12;22.52;;;17.10;;
58208;SDS011;44006;52.028;4.696;2023-06-22T00:26:37;22.70;;;16.40;;
58208;SDS011;44006;52.028;4.696;2023-06-22T00:29:02;23.67;;;17.47;;
58208;SDS011;44006;52.028;4.696;2023-06-22T00:31:27;21.43;;;16.63;;
58208;SDS011;44006;52.028;4.696;2023-06-22T00:33:52;21.27;;;16.63;;
58208;SDS011;44006;52.028;4.696;2023-06-22T00:36:18;24.00;;;17.73;;
58208;SDS011;44006;52.028;4.696;2023-06-22T00:38:44;22.42;;;16.73;;
58208;SDS011;44006;52.028;4.696;2023-06-22T00:41:09;21.15;;;16.13;;
58208;SDS011;44006;52.028;4.696;2023-06-22T00:43:34;21.42;;;16.35;;
58208;SDS011;44006;52.028;4.696;2023-06-22T00:46:00;24.02;;;17.15;;
58208;SDS011;44006;52.028;4.696;2023-06-22T00:48:25;24.63;;;18.15;;
58208;SDS011;44006;52.028;4.696;2023-06-22T00:50:50;26.48;;;19.45;;
58208;SDS011;44006;52.028;4.696;2023-06-22T00:53:18;28.35;;;20.35;;
58208;SDS011;44006;52.028;4.696;2023-06-22T00:55:44;28.08;;;20.98;;
58208;SDS011;44006;52.028;4.696;2023-06-22T00:58:11;31.25;;;21.73;;
58208;SDS011;44006;52.028;4.696;2023-06-22T01:00:37;28.50;;;22.92;;
58208;SDS011;44006;52.028;4.696;2023-06-22T01:03:03;25.50;;;20.70;;
58208;SDS011;44006;52.028;4.696;2023-06-22T01:05:28;28.60;;;21.63;;
58208;SDS011;44006;52.028;4.696;2023-06-22T01:11:12;27.30;;;21.10;;
58208;SDS011;44006;52.028;4.696;2023-06-22T01:13:32;26.95;;;20.10;;
58208;SDS011;44006;52.028;4.696;2023-06-22T01:16:14;27.97;;;20.37;;
58208;SDS011;44006;52.028;4.696;2023-06-22T01:18:42;28.73;;;20.38;;
58208;SDS011;44006;52.028;4.696;2023-06-22T01:21:07;26.63;;;21.48;;
58208;SDS011;44006;52.028;4.696;2023-06-22T01:23:39;28.10;;;21.13;;
58208;SDS011;44006;52.028;4.696;2023-06-22T01:26:17;29.10;;;23.08;;
58208;SDS011;44006;52.028;4.696;2023-06-22T01:28:53;26.95;;;21.38;;
58208;SDS011;44006;52.028;4.696;2023-06-22T01:31:20;30.10;;;23.27;;
58208;SDS011;44006;52.028;4.696;2023-06-22T01:33:48;31.70;;;24.25;;
58208;SDS011;44006;52.028;4.696;2023-06-22T01:36:14;30.50;;;23.17;;
58208;SDS011;44006;52.028;4.696;2023-06-22T01:38:42;29.77;;;24.38;;
58208;SDS011;44006;52.028;4.696;2023-06-22T01:41:08;31.00;;;23.85;;
58208;SDS011;44006;52.028;4.696;2023-06-22T01:43:33;29.48;;;23.85;;
58208;SDS011;44006;52.028;4.696;2023-06-22T01:46:00;30.73;;;23.65;;
58208;SDS011;44006;52.028;4.696;2023-06-22T01:48:26;31.27;;;24.30;;
58208;SDS011;44006;52.028;4.696;2023-06-22T01:50:52;30.60;;;23.45;;
58208;SDS011;44006;52.028;4.696;2023-06-22T01:53:17;27.98;;;22.85;;
58208;SDS011;44006;52.028;4.696;2023-06-22T01:55:42;29.08;;;21.30;;
58208;SDS011;44006;52.028;4.696;2023-06-22T01:58:08;27.50;;;22.85;;
58208;SDS011;44006;52.028;4.696;2023-06-22T02:00:34;31.75;;;23.10;;
58208;SDS011;44006;52.028;4.696;2023-06-22T02:03:22;29.42;;;22.90;;
58208;SDS011;44006;52.028;4.696;2023-06-22T02:05:49;31.35;;;22.90;;
58208;SDS011;44006;52.028;4.696;2023-06-22T02:08:19;31.15;;;23.50;;
58208;SDS011;44006;52.028;4.696;2023-06-22T02:10:46;28.73;;;23.17;;
58208;SDS011;44006;52.028;4.696;2023-06-22T02:13:11;28.48;;;23.10;;
58208;SDS011;44006;52.028;4.696;2023-06-22T02:15:37;28.52;;;22.75;;
58208;SDS011;44006;52.028;4.696;2023-06-22T02:18:02;30.05;;;23.58;;
58208;SDS011;44006;52.028;4.696;2023-06-22T02:20:27;29.83;;;23.63;;
58208;SDS011;44006;52.028;4.696;2023-06-22T02:22:53;29.07;;;23.13;;
58208;SDS011;44006;52.028;4.696;2023-06-22T02:25:18;29.53;;;23.43;;
58208;SDS011;44006;52.028;4.696;2023-06-22T02:27:44;27.67;;;23.08;;
58208;SDS011;44006;52.028;4.696;2023-06-22T02:30:10;31.33;;;24.50;;
58208;SDS011;44006;52.028;4.696;2023-06-22T02:32:35;28.60;;;21.90;;
58208;SDS011;44006;52.028;4.696;2023-06-22T02:35:01;30.05;;;23.95;;
58208;SDS011;44006;52.028;4.696;2023-06-22T02:37:29;30.27;;;24.30;;
58208;SDS011;44006;52.028;4.696;2023-06-22T02:39:54;30.98;;;23.33;;
58208;SDS011;44006;52.028;4.696;2023-06-22T02:42:19;30.93;;;24.23;;
58208;SDS011;44006;52.028;4.696;2023-06-22T02:44:46;33.78;;;24.65;;
58208;SDS011;44006;52.028;4.696;2023-06-22T02:47:11;29.52;;;23.45;;
58208;SDS011;44006;52.028;4.696;2023-06-22T02:49:37;28.90;;;23.80;;
58208;SDS011;44006;52.028;4.696;2023-06-22T02:52:02;35.20;;;25.03;;
58208;SDS011;44006;52.028;4.696;2023-06-22T02:54:27;34.38;;;24.65;;
58208;SDS011;44006;52.028;4.696;2023-06-22T02:56:52;30.70;;;24.30;;
58208;SDS011;44006;52.028;4.696;2023-06-22T02:59:18;33.47;;;25.45;;
58208;SDS011;44006;52.028;4.696;2023-06-22T03:01:48;32.25;;;25.17;;
58208;SDS011;44006;52.028;4.696;2023-06-22T03:04:15;35.30;;;25.48;;
58208;SDS011;44006;52.028;4.696;2023-06-22T03:06:40;30.30;;;24.20;;
58208;SDS011;44006;52.028;4.696;2023-06-22T03:09:05;31.95;;;23.88;;
58208;SDS011;44006;52.028;4.696;2023-06-22T03:11:31;31.45;;;24.98;;
58208;SDS011;44006;52.028;4.696;2023-06-22T03:13:56;31.00;;;23.83;;
58208;SDS011;44006;52.028;4.696;2023-06-22T03:16:22;31.05;;;23.52;;
58208;SDS011;44006;52.028;4.696;2023-06-22T03:18:47;33.60;;;23.67;;
58208;SDS011;44006;52.028;4.696;2023-06-22T03:21:13;34.00;;;23.77;;
58208;SDS011;44006;52.028;4.696;2023-06-22T03:23:40;30.30;;;23.20;;
58208;SDS011;44006;52.028;4.696;2023-06-22T03:26:05;27.10;;;22.17;;
58208;SDS011;44006;52.028;4.696;2023-06-22T03:28:30;28.33;;;22.80;;
58208;SDS011;44006;52.028;4.696;2023-06-22T03:30:58;28.53;;;23.20;;
58208;SDS011;44006;52.028;4.696;2023-06-22T03:33:24;26.77;;;22.70;;
58208;SDS011;44006;52.028;4.696;2023-06-22T03:35:49;31.70;;;23.80;;
58208;SDS011;44006;52.028;4.696;2023-06-22T03:38:15;32.30;;;24.05;;
58208;SDS011;44006;52.028;4.696;2023-06-22T03:40:40;29.33;;;22.67;;
58208;SDS011;44006;52.028;4.696;2023-06-22T03:43:05;29.60;;;23.03;;
58208;SDS011;44006;52.028;4.696;2023-06-22T03:45:30;28.40;;;22.80;;
58208;SDS011;44006;52.028;4.696;2023-06-22T03:47:55;30.10;;;23.57;;
58208;SDS011;44006;52.028;4.696;2023-06-22T03:50:21;32.87;;;24.43;;
58208;SDS011;44006;52.028;4.696;2023-06-22T03:52:46;30.80;;;23.50;;
58208;SDS011;44006;52.028;4.696;2023-06-22T03:55:12;32.20;;;24.00;;
58208;SDS011;44006;52.028;4.696;2023-06-22T03:57:37;30.77;;;23.33;;
58208;SDS011;44006;52.028;4.696;2023-06-22T04:00:02;28.03;;;23.03;;
58208;SDS011;44006;52.028;4.696;2023-06-22T04:02:30;31.17;;;23.33;;
58208;SDS011;44006;52.028;4.696;2023-06-22T04:04:55;28.17;;;21.47;;
58208;SDS011;44006;52.028;4.696;2023-06-22T04:07:21;30.60;;;22.17;;
58208;SDS011;44006;52.028;4.696;2023-06-22T04:09:46;30.17;;;22.00;;
58208;SDS011;44006;52.028;4.696;2023-06-22T04:12:11;30.67;;;23.00;;
58208;SDS011;44006;52.028;4.696;2023-06-22T04:14:37;27.03;;;20.57;;
58208;SDS011;44006;52.028;4.696;2023-06-22T04:17:02;27.53;;;22.13;;
58208;SDS011;44006;52.028;4.696;2023-06-22T04:19:27;27.40;;;22.08;;
58208;SDS011;44006;52.028;4.696;2023-06-22T04:21:52;31.77;;;24.45;;
58208;SDS011;44006;52.028;4.696;2023-06-22T04:24:18;34.33;;;26.67;;
58208;SDS011;44006;52.028;4.696;2023-06-22T04:26:43;36.00;;;26.90;;
58208;SDS011;44006;52.028;4.696;2023-06-22T04:29:10;34.17;;;26.38;;
58208;SDS011;44006;52.028;4.696;2023-06-22T04:31:35;33.90;;;25.15;;
58208;SDS011;44006;52.028;4.696;2023-06-22T04:34:04;33.53;;;25.33;;
58208;SDS011;44006;52.028;4.696;2023-06-22T04:36:33;34.42;;;25.83;;
58208;SDS011;44006;52.028;4.696;2023-06-22T04:39:02;34.03;;;25.67;;
58208;SDS011;44006;52.028;4.696;2023-06-22T04:41:28;35.00;;;26.38;;
58208;SDS011;44006;52.028;4.696;2023-06-22T04:43:53;35.10;;;26.43;;
58208;SDS011;44006;52.028;4.696;2023-06-22T04:46:19;32.55;;;24.52;;
58208;SDS011;44006;52.028;4.696;2023-06-22T04:48:44;35.35;;;25.40;;
58208;SDS011;44006;52.028;4.696;2023-06-22T04:51:09;34.67;;;25.30;;
58208;SDS011;44006;52.028;4.696;2023-06-22T04:53:35;32.92;;;24.67;;
58208;SDS011;44006;52.028;4.696;2023-06-22T04:56:00;35.10;;;24.77;;
58208;SDS011;44006;52.028;4.696;2023-06-22T04:58:26;33.43;;;25.60;;
58208;SDS011;44006;52.028;4.696;2023-06-22T05:00:53;30.02;;;22.90;;
58208;SDS011;44006;52.028;4.696;2023-06-22T05:03:21;26.92;;;22.05;;
58208;SDS011;44006;52.028;4.696;2023-06-22T05:05:47;31.17;;;23.10;;
58208;SDS011;44006;52.028;4.696;2023-06-22T05:08:12;27.80;;;21.20;;
58208;SDS011;44006;52.028;4.696;2023-06-22T05:10:38;27.15;;;20.20;;
58208;SDS011;44006;52.028;4.696;2023-06-22T05:13:04;28.30;;;21.57;;
58208;SDS011;44006;52.028;4.696;2023-06-22T05:15:29;29.35;;;21.17;;
58208;SDS011;44006;52.028;4.696;2023-06-22T05:17:58;29.67;;;21.55;;
58208;SDS011;44006;52.028;4.696;2023-06-22T05:20:24;25.90;;;20.42;;
58208;SDS011;44006;52.028;4.696;2023-06-22T05:22:49;25.00;;;20.10;;
58208;SDS011;44006;52.028;4.696;2023-06-22T05:25:15;27.23;;;20.98;;
58208;SDS011;44006;52.028;4.696;2023-06-22T05:27:40;25.30;;;18.92;;
58208;SDS011;44006;52.028;4.696;2023-06-22T05:30:06;27.77;;;19.13;;
58208;SDS011;44006;52.028;4.696;2023-06-22T05:32:32;26.33;;;20.52;;
58208;SDS011;44006;52.028;4.696;2023-06-22T05:34:57;26.15;;;18.90;;
58208;SDS011;44006;52.028;4.696;2023-06-22T05:37:23;25.53;;;17.30;;
58208;SDS011;44006;52.028;4.696;2023-06-22T05:39:48;20.90;;;17.87;;
58208;SDS011;44006;52.028;4.696;2023-06-22T05:42:13;24.92;;;18.17;;
58208;SDS011;44006;52.028;4.696;2023-06-22T05:44:38;25.70;;;18.53;;
58208;SDS011;44006;52.028;4.696;2023-06-22T05:47:05;26.77;;;18.33;;
58208;SDS011;44006;52.028;4.696;2023-06-22T05:49:30;24.15;;;18.58;;
58208;SDS011;44006;52.028;4.696;2023-06-22T05:51:57;24.17;;;18.73;;
58208;SDS011;44006;52.028;4.696;2023-06-22T05:54:23;24.13;;;17.38;;
58208;SDS011;44006;52.028;4.696;2023-06-22T05:56:48;21.92;;;17.20;;
58208;SDS011;44006;52.028;4.696;2023-06-22T05:59:13;23.97;;;17.77;;
58208;SDS011;44006;52.028;4.696;2023-06-22T06:01:38;22.08;;;16.75;;
58208;SDS011;44006;52.028;4.696;2023-06-22T06:04:05;22.92;;;17.63;;
58208;SDS011;44006;52.028;4.696;2023-06-22T06:06:33;24.10;;;18.33;;
58208;SDS011;44006;52.028;4.696;2023-06-22T06:09:00;19.83;;;16.48;;
58208;SDS011;44006;52.028;4.696;2023-06-22T06:11:25;21.13;;;17.50;;
58208;SDS011;44006;52.028;4.696;2023-06-22T06:13:50;22.52;;;16.80;;
58208;SDS011;44006;52.028;4.696;2023-06-22T06:16:16;21.63;;;17.23;;
58208;SDS011;44006;52.028;4.696;2023-06-22T06:18:41;21.13;;;17.00;;
58208;SDS011;44006;52.028;4.696;2023-06-22T06:21:06;22.20;;;16.47;;
58208;SDS011;44006;52.028;4.696;2023-06-22T06:23:31;27.13;;;17.50;;
58208;SDS011;44006;52.028;4.696;2023-06-22T06:25:56;21.07;;;16.80;;
58208;SDS011;44006;52.028;4.696;2023-06-22T06:28:22;20.05;;;15.15;;
58208;SDS011;44006;52.028;4.696;2023-06-22T06:30:47;21.20;;;16.77;;
58208;SDS011;44006;52.028;4.696;2023-06-22T06:33:13;21.77;;;15.53;;
58208;SDS011;44006;52.028;4.696;2023-06-22T06:35:38;19.90;;;15.00;;
58208;SDS011;44006;52.028;4.696;2023-06-22T06:38:03;21.10;;;14.95;;
58208;SDS011;44006;52.028;4.696;2023-06-22T06:40:28;20.10;;;15.47;;
58208;SDS011;44006;52.028;4.696;2023-06-22T06:42:54;21.65;;;15.63;;
58208;SDS011;44006;52.028;4.696;2023-06-22T06:45:20;19.83;;;14.90;;
58208;SDS011;44006;52.028;4.696;2023-06-22T06:47:47;21.23;;;14.98;;
58208;SDS011;44006;52.028;4.696;2023-06-22T06:50:12;18.02;;;14.60;;
58208;SDS011;44006;52.028;4.696;2023-06-22T06:52:37;19.00;;;14.23;;
58208;SDS011;44006;52.028;4.696;2023-06-22T06:55:03;19.30;;;13.40;;
58208;SDS011;44006;52.028;4.696;2023-06-22T06:57:33;17.55;;;12.85;;
58208;SDS011;44006;52.028;4.696;2023-06-22T06:59:59;18.25;;;13.57;;
58208;SDS011;44006;52.028;4.696;2023-06-22T07:02:25;18.23;;;13.93;;
58208;SDS011;44006;52.028;4.696;2023-06-22T07:04:52;18.90;;;14.00;;
58208;SDS011;44006;52.028;4.696;2023-06-22T07:07:18;16.63;;;13.95;;
58208;SDS011;44006;52.028;4.696;2023-06-22T07:09:43;17.27;;;13.60;;
58208;SDS011;44006;52.028;4.696;2023-06-22T07:12:08;18.95;;;14.00;;
58208;SDS011;44006;52.028;4.696;2023-06-22T07:14:33;20.48;;;14.63;;
58208;SDS011;44006;52.028;4.696;2023-06-22T07:16:59;17.65;;;13.35;;
58208;SDS011;44006;52.028;4.696;2023-06-22T07:19:25;16.90;;;13.50;;
58208;SDS011;44006;52.028;4.696;2023-06-22T07:21:50;18.58;;;13.75;;
58208;SDS011;44006;52.028;4.696;2023-06-22T07:24:15;13.97;;;11.17;;
58208;SDS011;44006;52.028;4.696;2023-06-22T07:26:41;13.53;;;11.33;;
58208;SDS011;44006;52.028;4.696;2023-06-22T07:29:10;12.68;;;8.77;;
58208;SDS011;44006;52.028;4.696;2023-06-22T07:31:35;10.40;;;7.63;;
58208;SDS011;44006;52.028;4.696;2023-06-22T07:34:01;10.27;;;7.93;;
58208;SDS011;44006;52.028;4.696;2023-06-22T07:36:26;10.07;;;8.32;;
58208;SDS011;44006;52.028;4.696;2023-06-22T07:38:51;10.45;;;8.30;;
58208;SDS011;44006;52.028;4.696;2023-06-22T07:41:16;9.77;;;7.77;;
58208;SDS011;44006;52.028;4.696;2023-06-22T07:43:41;12.57;;;8.10;;
58208;SDS011;44006;52.028;4.696;2023-06-22T07:46:07;11.52;;;8.82;;
58208;SDS011;44006;52.028;4.696;2023-06-22T07:48:32;13.20;;;9.13;;
58208;SDS011;44006;52.028;4.696;2023-06-22T07:50:57;11.05;;;7.70;;
58208;SDS011;44006;52.028;4.696;2023-06-22T07:53:23;9.27;;;6.53;;
58208;SDS011;44006;52.028;4.696;2023-06-22T07:55:48;7.93;;;6.28;;
58208;SDS011;44006;52.028;4.696;2023-06-22T07:58:13;9.35;;;6.97;;
58208;SDS011;44006;52.028;4.696;2023-06-22T08:00:39;12.43;;;8.43;;
58208;SDS011;44006;52.028;4.696;2023-06-22T08:03:04;14.00;;;10.43;;
58208;SDS011;44006;52.028;4.696;2023-06-22T08:05:30;12.50;;;10.15;;
58208;SDS011;44006;52.028;4.696;2023-06-22T08:07:55;14.45;;;12.00;;
58208;SDS011;44006;52.028;4.696;2023-06-22T08:10:20;16.03;;;12.30;;
58208;SDS011;44006;52.028;4.696;2023-06-22T08:12:46;17.30;;;13.27;;
58208;SDS011;44006;52.028;4.696;2023-06-22T08:15:11;17.10;;;13.87;;
58208;SDS011;44006;52.028;4.696;2023-06-22T08:17:37;22.35;;;15.05;;
58208;SDS011;44006;52.028;4.696;2023-06-22T08:20:02;20.17;;;16.17;;
58208;SDS011;44006;52.028;4.696;2023-06-22T08:22:34;23.50;;;16.83;;
58208;SDS011;44006;52.028;4.696;2023-06-22T08:25:00;18.23;;;16.23;;
58208;SDS011;44006;52.028;4.696;2023-06-22T08:27:25;22.15;;;18.15;;
58208;SDS011;44006;52.028;4.696;2023-06-22T08:29:53;19.30;;;16.05;;
58208;SDS011;44006;52.028;4.696;2023-06-22T08:32:23;24.55;;;18.88;;
58208;SDS011;44006;52.028;4.696;2023-06-22T08:34:48;23.45;;;17.85;;
58208;SDS011;44006;52.028;4.696;2023-06-22T08:37:13;22.92;;;19.45;;
58208;SDS011;44006;52.028;4.696;2023-06-22T08:39:39;22.63;;;18.30;;
58208;SDS011;44006;52.028;4.696;2023-06-22T08:42:04;23.30;;;18.38;;
58208;SDS011;44006;52.028;4.696;2023-06-22T08:44:30;21.73;;;17.05;;
58208;SDS011;44006;52.028;4.696;2023-06-22T08:46:55;22.97;;;17.60;;
58208;SDS011;44006;52.028;4.696;2023-06-22T08:49:20;20.20;;;17.30;;
58208;SDS011;44006;52.028;4.696;2023-06-22T08:51:46;19.85;;;17.02;;
58208;SDS011;44006;52.028;4.696;2023-06-22T08:54:14;19.90;;;16.13;;
58208;SDS011;44006;52.028;4.696;2023-06-22T08:56:39;20.17;;;15.77;;
58208;SDS011;44006;52.028;4.696;2023-06-22T08:59:04;21.67;;;16.40;;
58208;SDS011;44006;52.028;4.696;2023-06-22T09:01:32;20.65;;;15.38;;
58208;SDS011;44006;52.028;4.696;2023-06-22T09:03:57;18.27;;;13.77;;
58208;SDS011;44006;52.028;4.696;2023-06-22T09:06:23;14.65;;;12.30;;
58208;SDS011;44006;52.028;4.696;2023-06-22T09:08:49;16.92;;;14.27;;
58208;SDS011;44006;52.028;4.696;2023-06-22T09:11:15;16.48;;;13.45;;
58208;SDS011;44006;52.028;4.696;2023-06-22T09:13:40;15.88;;;12.32;;
58208;SDS011;44006;52.028;4.696;2023-06-22T09:16:05;14.93;;;12.67;;
58208;SDS011;44006;52.028;4.696;2023-06-22T09:18:31;16.77;;;13.07;;
58208;SDS011;44006;52.028;4.696;2023-06-22T09:20:56;13.68;;;11.95;;
58208;SDS011;44006;52.028;4.696;2023-06-22T09:23:22;13.00;;;11.60;;
58208;SDS011;44006;52.028;4.696;2023-06-22T09:25:47;14.10;;;10.30;;
58208;SDS011;44006;52.028;4.696;2023-06-22T09:28:13;15.85;;;10.88;;
58208;SDS011;44006;52.028;4.696;2023-06-22T09:30:38;14.88;;;11.40;;
58208;SDS011;44006;52.028;4.696;2023-06-22T09:33:03;14.05;;;12.18;;
58208;SDS011;44006;52.028;4.696;2023-06-22T09:35:28;15.55;;;11.75;;
58208;SDS011;44006;52.028;4.696;2023-06-22T09:37:54;19.43;;;13.00;;
58208;SDS011;44006;52.028;4.696;2023-06-22T09:40:19;14.75;;;11.90;;
58208;SDS011;44006;52.028;4.696;2023-06-22T09:42:45;17.00;;;12.55;;
58208;SDS011;44006;52.028;4.696;2023-06-22T09:45:10;15.75;;;11.65;;
58208;SDS011;44006;52.028;4.696;2023-06-22T09:47:35;14.93;;;10.87;;
58208;SDS011;44006;52.028;4.696;2023-06-22T09:50:01;13.05;;;10.50;;
58208;SDS011;44006;52.028;4.696;2023-06-22T09:52:26;13.68;;;10.85;;
58208;SDS011;44006;52.028;4.696;2023-06-22T09:54:51;17.25;;;10.00;;
58208;SDS011;44006;52.028;4.696;2023-06-22T09:57:16;12.93;;;9.80;;
58208;SDS011;44006;52.028;4.696;2023-06-22T09:59:42;14.23;;;9.48;;
58208;SDS011;44006;52.028;4.696;2023-06-22T10:02:07;16.23;;;11.83;;
58208;SDS011;44006;52.028;4.696;2023-06-22T10:04:33;12.77;;;10.68;;
58208;SDS011;44006;52.028;4.696;2023-06-22T10:06:59;14.63;;;11.63;;
58208;SDS011;44006;52.028;4.696;2023-06-22T10:09:25;15.02;;;12.00;;
58208;SDS011;44006;52.028;4.696;2023-06-22T10:11:50;15.03;;;13.20;;
58208;SDS011;44006;52.028;4.696;2023-06-22T10:14:15;15.63;;;13.80;;
58208;SDS011;44006;52.028;4.696;2023-06-22T10:16:41;17.33;;;15.13;;
58208;SDS011;44006;52.028;4.696;2023-06-22T10:19:07;19.58;;;14.75;;
58208;SDS011;44006;52.028;4.696;2023-06-22T10:21:32;16.37;;;13.57;;
58208;SDS011;44006;52.028;4.696;2023-06-22T10:23:57;18.42;;;14.35;;
58208;SDS011;44006;52.028;4.696;2023-06-22T10:26:24;14.65;;;12.80;;
58208;SDS011;44006;52.028;4.696;2023-06-22T10:28:49;15.27;;;12.60;;
58208;SDS011;44006;52.028;4.696;2023-06-22T10:31:15;17.73;;;14.20;;
58208;SDS011;44006;52.028;4.696;2023-06-22T10:33:41;18.77;;;15.55;;
58208;SDS011;44006;52.028;4.696;2023-06-22T10:36:08;21.85;;;15.57;;
58208;SDS011;44006;52.028;4.696;2023-06-22T10:38:34;18.93;;;16.57;;
58208;SDS011;44006;52.028;4.696;2023-06-22T10:40:59;18.92;;;16.00;;
58208;SDS011;44006;52.028;4.696;2023-06-22T10:43:24;19.63;;;15.03;;
58208;SDS011;44006;52.028;4.696;2023-06-22T10:45:49;17.90;;;15.83;;
58208;SDS011;44006;52.028;4.696;2023-06-22T10:48:14;19.93;;;16.23;;
58208;SDS011;44006;52.028;4.696;2023-06-22T10:50:40;16.50;;;14.57;;
58208;SDS011;44006;52.028;4.696;2023-06-22T10:53:05;17.67;;;15.13;;
58208;SDS011;44006;52.028;4.696;2023-06-22T10:55:31;18.43;;;16.53;;
58208;SDS011;44006;52.028;4.696;2023-06-22T10:57:56;18.50;;;15.48;;
58208;SDS011;44006;52.028;4.696;2023-06-22T11:00:22;22.13;;;16.33;;
58208;SDS011;44006;52.028;4.696;2023-06-22T11:02:47;20.83;;;15.63;;
58208;SDS011;44006;52.028;4.696;2023-06-22T11:05:12;19.50;;;16.07;;
58208;SDS011;44006;52.028;4.696;2023-06-22T11:07:38;21.90;;;14.95;;
58208;SDS011;44006;52.028;4.696;2023-06-22T11:10:06;18.55;;;15.02;;
58208;SDS011;44006;52.028;4.696;2023-06-22T11:12:32;18.80;;;15.13;;
58208;SDS011;44006;52.028;4.696;2023-06-22T11:14:57;16.30;;;13.63;;
58208;SDS011;44006;52.028;4.696;2023-06-22T11:17:22;18.23;;;13.93;;
58208;SDS011;44006;52.028;4.696;2023-06-22T11:19:47;17.27;;;13.35;;
58208;SDS011;44006;52.028;4.696;2023-06-22T11:22:13;16.40;;;13.17;;
58208;SDS011;44006;52.028;4.696;2023-06-22T11:24:38;18.30;;;13.47;;
58208;SDS011;44006;52.028;4.696;2023-06-22T11:27:03;18.17;;;12.90;;
58208;SDS011;44006;52.028;4.696;2023-06-22T11:29:28;14.80;;;12.63;;
58208;SDS011;44006;52.028;4.696;2023-06-22T11:31:53;13.88;;;11.80;;
58208;SDS011;44006;52.028;4.696;2023-06-22T11:34:19;19.20;;;13.53;;
58208;SDS011;44006;52.028;4.696;2023-06-22T11:36:44;21.23;;;15.73;;
58208;SDS011;44006;52.028;4.696;2023-06-22T11:39:10;20.92;;;15.45;;
58208;SDS011;44006;52.028;4.696;2023-06-22T11:41:35;20.80;;;15.82;;
58208;SDS011;44006;52.028;4.696;2023-06-22T11:44:01;19.87;;;16.57;;
58208;SDS011;44006;52.028;4.696;2023-06-22T11:46:26;21.70;;;18.17;;
58208;SDS011;44006;52.028;4.696;2023-06-22T11:48:51;26.58;;;18.65;;
58208;SDS011;44006;52.028;4.696;2023-06-22T11:51:17;22.95;;;18.63;;
58208;SDS011;44006;52.028;4.696;2023-06-22T11:53:43;20.33;;;16.85;;
58208;SDS011;44006;52.028;4.696;2023-06-22T11:56:08;20.93;;;17.47;;
58208;SDS011;44006;52.028;4.696;2023-06-22T11:58:33;21.87;;;17.40;;
58208;SDS011;44006;52.028;4.696;2023-06-22T12:00:59;23.17;;;19.10;;
58208;SDS011;44006;52.028;4.696;2023-06-22T12:03:24;24.25;;;19.30;;
58208;SDS011;44006;52.028;4.696;2023-06-22T12:05:50;26.33;;;20.20;;
58208;SDS011;44006;52.028;4.696;2023-06-22T12:08:16;28.25;;;19.95;;
58208;SDS011;44006;52.028;4.696;2023-06-22T12:10:41;24.88;;;20.13;;
58208;SDS011;44006;52.028;4.696;2023-06-22T12:13:07;26.40;;;20.80;;
58208;SDS011;44006;52.028;4.696;2023-06-22T12:15:32;25.83;;;20.13;;
58208;SDS011;44006;52.028;4.696;2023-06-22T12:17:57;25.40;;;22.00;;
58208;SDS011;44006;52.028;4.696;2023-06-22T12:20:22;25.67;;;22.30;;
58208;SDS011;44006;52.028;4.696;2023-06-22T12:22:47;29.13;;;22.95;;
58208;SDS011;44006;52.028;4.696;2023-06-22T12:25:14;27.15;;;24.23;;
58208;SDS011;44006;52.028;4.696;2023-06-22T12:27:39;29.97;;;24.20;;
58208;SDS011;44006;52.028;4.696;2023-06-22T12:30:05;28.67;;;23.70;;
58208;SDS011;44006;52.028;4.696;2023-06-22T12:32:30;25.45;;;22.67;;
58208;SDS011;44006;52.028;4.696;2023-06-22T12:34:56;28.73;;;24.03;;
58208;SDS011;44006;52.028;4.696;2023-06-22T12:37:21;27.92;;;24.58;;
58208;SDS011;44006;52.028;4.696;2023-06-22T12:39:46;28.65;;;24.58;;
58208;SDS011;44006;52.028;4.696;2023-06-22T12:42:12;27.27;;;23.47;;
58208;SDS011;44006;52.028;4.696;2023-06-22T12:44:38;27.50;;;22.25;;
58208;SDS011;44006;52.028;4.696;2023-06-22T12:47:03;30.80;;;23.55;;
58208;SDS011;44006;52.028;4.696;2023-06-22T12:49:28;29.95;;;25.02;;
58208;SDS011;44006;52.028;4.696;2023-06-22T12:51:54;26.83;;;23.33;;
58208;SDS011;44006;52.028;4.696;2023-06-22T12:54:19;28.87;;;24.20;;
58208;SDS011;44006;52.028;4.696;2023-06-22T12:56:44;26.38;;;22.98;;
58208;SDS011;44006;52.028;4.696;2023-06-22T12:59:10;28.88;;;24.02;;
58208;SDS011;44006;52.028;4.696;2023-06-22T13:01:35;30.75;;;24.35;;
58208;SDS011;44006;52.028;4.696;2023-06-22T13:04:00;29.58;;;25.17;;
58208;SDS011;44006;52.028;4.696;2023-06-22T13:06:25;28.60;;;24.67;;
58208;SDS011;44006;52.028;4.696;2023-06-22T13:08:51;27.90;;;24.33;;
58208;SDS011;44006;52.028;4.696;2023-06-22T13:11:16;26.73;;;23.43;;
58208;SDS011;44006;52.028;4.696;2023-06-22T13:13:41;27.65;;;24.67;;
58208;SDS011;44006;52.028;4.696;2023-06-22T13:16:07;31.40;;;24.40;;
58208;SDS011;44006;52.028;4.696;2023-06-22T13:18:32;27.52;;;23.98;;
58208;SDS011;44006;52.028;4.696;2023-06-22T13:20:58;30.92;;;23.38;;
58208;SDS011;44006;52.028;4.696;2023-06-22T13:23:25;29.08;;;22.08;;
58208;SDS011;44006;52.028;4.696;2023-06-22T13:25:50;28.70;;;23.23;;
58208;SDS011;44006;52.028;4.696;2023-06-22T13:28:15;28.20;;;22.10;;
58208;SDS011;44006;52.028;4.696;2023-06-22T13:30:42;27.73;;;23.50;;
58208;SDS011;44006;52.028;4.696;2023-06-22T13:33:08;28.40;;;23.85;;
58208;SDS011;44006;52.028;4.696;2023-06-22T13:35:33;30.20;;;24.40;;
58208;SDS011;44006;52.028;4.696;2023-06-22T13:38:00;31.60;;;24.73;;
58208;SDS011;44006;52.028;4.696;2023-06-22T13:40:25;29.50;;;24.85;;
58208;SDS011;44006;52.028;4.696;2023-06-22T13:42:50;28.77;;;24.47;;
58208;SDS011;44006;52.028;4.696;2023-06-22T13:45:15;29.50;;;24.77;;
58208;SDS011;44006;52.028;4.696;2023-06-22T13:47:42;35.00;;;24.70;;
58208;SDS011;44006;52.028;4.696;2023-06-22T13:50:07;30.38;;;25.10;;
58208;SDS011;44006;52.028;4.696;2023-06-22T13:52:32;30.13;;;25.67;;
58208;SDS011;44006;52.028;4.696;2023-06-22T13:54:58;28.27;;;25.27;;
58208;SDS011;44006;52.028;4.696;2023-06-22T13:57:23;29.83;;;24.92;;
58208;SDS011;44006;52.028;4.696;2023-06-22T13:59:48;31.10;;;25.80;;
58208;SDS011;44006;52.028;4.696;2023-06-22T14:02:13;29.70;;;24.80;;
58208;SDS011;44006;52.028;4.696;2023-06-22T14:04:42;29.92;;;24.75;;
58208;SDS011;44006;52.028;4.696;2023-06-22T14:07:10;28.73;;;24.40;;
58208;SDS011;44006;52.028;4.696;2023-06-22T14:09:35;34.92;;;26.77;;
58208;SDS011;44006;52.028;4.696;2023-06-22T14:12:06;26.93;;;24.07;;
58208;SDS011;44006;52.028;4.696;2023-06-22T14:14:32;30.27;;;24.58;;
58208;SDS011;44006;52.028;4.696;2023-06-22T14:16:58;27.95;;;21.70;;
58208;SDS011;44006;52.028;4.696;2023-06-22T14:19:23;22.30;;;19.70;;